Time;durP1;ratioP1;P1;durP2;ratioP2;P2;SDS_P1;SDS_P2;PMS_P1;PMS_P2;Temp;Humidity;BMP_temperature;BMP_pressure;BME280_temperature;BME280_humidity;BME280_pressure;Samples;Min_cycle;Max_cycle;Signal;HPM_P1;HPM_P2
2024/02/11 00:01:56;;;;;;;58.25;36.10;;;;;;;;;;4988264;28;20666;-66
2024/02/11 00:04:22;;;;;;;63.13;37.25;;;;;;;;;;4994929;28;20038;-66
2024/02/11 00:06:48;;;;;;;60.60;35.75;;;;;;;;;;4987278;28;20046;-66
2024/02/11 00:09:14;;;;;;;57.08;35.90;;;;;;;;;;4989363;28;20137;-66
2024/02/11 00:11:40;;;;;;;57.33;35.78;;;;;;;;;;4977102;28;20097;-66
2024/02/11 00:14:07;;;;;;;58.80;36.28;;;;;;;;;;4975984;28;20070;-66
2024/02/11 00:16:33;;;;;;;59.65;35.13;;;;;;;;;;4974947;28;20068;-66
2024/02/11 00:18:59;;;;;;;57.65;35.75;;;;;;;;;;4979778;28;20379;-66
2024/02/11 00:21:25;;;;;;;54.05;34.05;;;;;;;;;;4978086;28;20042;-66
2024/02/11 00:23:51;;;;;;;57.15;35.58;;;;;;;;;;4982978;28;20426;-66
2024/02/11 00:26:18;;;;;;;54.63;36.28;;;;;;;;;;5002530;28;20060;-66
2024/02/11 00:28:44;;;;;;;57.85;34.72;;;;;;;;;;4986383;28;20485;-66
2024/02/11 00:31:11;;;;;;;55.60;35.15;;;;;;;;;;4979358;28;20049;-66
2024/02/11 00:33:39;;;;;;;60.92;37.83;;;;;;;;;;4981087;28;20047;-66
2024/02/11 00:36:07;;;;;;;55.95;35.25;;;;;;;;;;4998914;28;20120;-66
2024/02/11 00:38:33;;;;;;;54.30;35.40;;;;;;;;;;4985387;28;20076;-66
2024/02/11 00:41:00;;;;;;;53.30;35.03;;;;;;;;;;4996768;28;20037;-66
2024/02/11 00:43:27;;;;;;;60.13;37.17;;;;;;;;;;4988000;28;20116;-66
2024/02/11 00:45:53;;;;;;;56.28;36.65;;;;;;;;;;4995039;28;20327;-66
2024/02/11 00:48:20;;;;;;;60.80;37.78;;;;;;;;;;4994876;28;20039;-66
2024/02/11 00:50:47;;;;;;;58.17;35.15;;;;;;;;;;4993110;28;20409;-66
2024/02/11 00:53:14;;;;;;;58.42;35.97;;;;;;;;;;4979022;28;20133;-66
2024/02/11 00:55:40;;;;;;;56.20;35.45;;;;;;;;;;4972701;28;20053;-66
2024/02/11 00:58:09;;;;;;;55.53;35.05;;;;;;;;;;4979689;28;20093;-66
2024/02/11 01:00:35;;;;;;;55.30;35.17;;;;;;;;;;4990774;28;20509;-66
2024/02/11 01:03:04;;;;;;;57.25;35.28;;;;;;;;;;5003146;28;20037;-66
2024/02/11 01:05:31;;;;;;;57.40;35.55;;;;;;;;;;4989111;28;20085;-66
2024/02/11 01:07:57;;;;;;;59.13;36.33;;;;;;;;;;4979841;28;20064;-66
2024/02/11 01:10:25;;;;;;;53.13;34.60;;;;;;;;;;4990023;28;20054;-66
2024/02/11 01:12:51;;;;;;;58.10;34.53;;;;;;;;;;4990349;28;20057;-66
2024/02/11 01:15:18;;;;;;;50.58;32.70;;;;;;;;;;4981105;28;20055;-66
2024/02/11 01:17:44;;;;;;;49.92;33.15;;;;;;;;;;4981976;28;20050;-66
2024/02/11 01:20:13;;;;;;;47.42;30.83;;;;;;;;;;4995240;28;20041;-66
2024/02/11 01:22:42;;;;;;;54.05;33.25;;;;;;;;;;4980154;28;20462;-66
2024/02/11 01:25:09;;;;;;;52.03;32.42;;;;;;;;;;4975944;28;20501;-65
2024/02/11 01:27:36;;;;;;;48.03;31.15;;;;;;;;;;4981573;28;20267;-66
2024/02/11 01:30:03;;;;;;;46.67;28.50;;;;;;;;;;4980738;28;20497;-66
2024/02/11 01:32:29;;;;;;;44.55;29.52;;;;;;;;;;4975096;28;20298;-66
2024/02/11 01:34:56;;;;;;;45.58;29.80;;;;;;;;;;4992586;28;20051;-66
2024/02/11 01:37:22;;;;;;;47.83;30.20;;;;;;;;;;4990877;28;20133;-65
2024/02/11 01:39:48;;;;;;;45.33;28.20;;;;;;;;;;4983036;28;20494;-66
2024/02/11 01:42:14;;;;;;;40.83;27.92;;;;;;;;;;4987073;28;20042;-66
2024/02/11 01:44:40;;;;;;;41.88;27.70;;;;;;;;;;4992464;28;20061;-65
2024/02/11 01:47:07;;;;;;;45.85;29.27;;;;;;;;;;4991610;28;20383;-65
2024/02/11 01:49:34;;;;;;;42.33;27.55;;;;;;;;;;4991445;28;20614;-66
2024/02/11 01:52:01;;;;;;;41.15;27.15;;;;;;;;;;4981912;28;20053;-66
2024/02/11 01:54:30;;;;;;;41.63;26.50;;;;;;;;;;4991827;28;20190;-66
2024/02/11 01:56:56;;;;;;;41.25;26.20;;;;;;;;;;4979961;28;20168;-66
2024/02/11 01:59:23;;;;;;;41.65;26.80;;;;;;;;;;4999091;28;20124;-66
2024/02/11 02:01:50;;;;;;;44.90;27.13;;;;;;;;;;4993920;28;20423;-66
2024/02/11 02:04:16;;;;;;;41.83;26.50;;;;;;;;;;4995481;28;20129;-66
2024/02/11 02:06:42;;;;;;;41.60;26.52;;;;;;;;;;4980775;28;20046;-66
2024/02/11 02:09:11;;;;;;;41.35;28.13;;;;;;;;;;4989698;28;20047;-66
2024/02/11 02:11:40;;;;;;;40.03;25.83;;;;;;;;;;4975781;28;20069;-66
2024/02/11 02:14:06;;;;;;;44.08;26.05;;;;;;;;;;4983858;28;20081;-66
2024/02/11 02:16:33;;;;;;;41.72;26.75;;;;;;;;;;4984222;28;20671;-66
2024/02/11 02:18:59;;;;;;;46.70;27.73;;;;;;;;;;4980803;28;20054;-66
2024/02/11 02:21:25;;;;;;;36.75;24.73;;;;;;;;;;4978881;28;20490;-66
2024/02/11 02:23:52;;;;;;;38.35;24.85;;;;;;;;;;4981043;28;20141;-66
2024/02/11 02:26:18;;;;;;;38.10;24.42;;;;;;;;;;4991438;28;20050;-66
2024/02/11 02:28:44;;;;;;;43.28;27.38;;;;;;;;;;4977679;28;20078;-66
2024/02/11 02:31:10;;;;;;;40.75;27.33;;;;;;;;;;4990195;28;20562;-66
2024/02/11 02:33:37;;;;;;;38.00;25.17;;;;;;;;;;4977922;28;20046;-65
2024/02/11 02:36:04;;;;;;;41.20;25.70;;;;;;;;;;4979661;28;20099;-66
2024/02/11 02:38:30;;;;;;;40.28;25.30;;;;;;;;;;4982306;28;20046;-66
2024/02/11 02:40:56;;;;;;;38.35;24.88;;;;;;;;;;4985774;28;20045;-66
2024/02/11 02:43:24;;;;;;;43.33;24.95;;;;;;;;;;4994399;28;20049;-66
2024/02/11 02:45:50;;;;;;;42.53;25.27;;;;;;;;;;4988646;28;20494;-66
2024/02/11 02:48:16;;;;;;;39.03;23.92;;;;;;;;;;4995142;28;20042;-66
2024/02/11 02:50:43;;;;;;;45.90;26.25;;;;;;;;;;4970829;28;20390;-66
2024/02/11 02:53:10;;;;;;;40.92;26.77;;;;;;;;;;4979359;28;20090;-66
2024/02/11 02:55:37;;;;;;;43.10;25.98;;;;;;;;;;4997538;28;20081;-66
2024/02/11 02:58:08;;;;;;;37.83;23.73;;;;;;;;;;5000671;28;20084;-66
2024/02/11 03:00:35;;;;;;;39.92;24.25;;;;;;;;;;4989150;28;20056;-66
2024/02/11 03:03:05;;;;;;;41.38;25.75;;;;;;;;;;4990156;28;20065;-66
2024/02/11 03:05:34;;;;;;;42.38;23.92;;;;;;;;;;5001920;28;20080;-66
2024/02/11 03:08:01;;;;;;;43.88;25.35;;;;;;;;;;4985587;28;20045;-66
2024/02/11 03:10:27;;;;;;;43.90;25.73;;;;;;;;;;4965703;28;20042;-66
2024/02/11 03:12:53;;;;;;;39.75;24.42;;;;;;;;;;4997848;28;20046;-66
2024/02/11 03:15:19;;;;;;;42.00;25.05;;;;;;;;;;4996806;28;20486;-65
2024/02/11 03:17:47;;;;;;;42.17;24.63;;;;;;;;;;4996914;28;20449;-66
2024/02/11 03:20:15;;;;;;;44.58;24.80;;;;;;;;;;4985112;28;20490;-66
2024/02/11 03:22:43;;;;;;;46.03;25.17;;;;;;;;;;4999638;28;20549;-66
2024/02/11 03:25:09;;;;;;;52.40;28.52;;;;;;;;;;4995807;28;20042;-66
2024/02/11 03:27:39;;;;;;;51.90;29.10;;;;;;;;;;4982255;28;20049;-66
2024/02/11 03:30:07;;;;;;;64.60;32.05;;;;;;;;;;4983910;28;20584;-66
2024/02/11 03:32:33;;;;;;;59.42;29.42;;;;;;;;;;4998112;28;20092;-66
2024/02/11 03:34:59;;;;;;;60.22;31.27;;;;;;;;;;4998770;28;20049;-66
2024/02/11 03:37:31;;;;;;;72.38;32.95;;;;;;;;;;4988299;28;20088;-66
2024/02/11 03:39:58;;;;;;;71.63;30.58;;;;;;;;;;4989005;28;20058;-65
2024/02/11 03:42:24;;;;;;;75.32;32.97;;;;;;;;;;4989561;28;20050;-66
2024/02/11 03:44:50;;;;;;;85.40;33.67;;;;;;;;;;4986784;28;20057;-66
2024/02/11 03:47:16;;;;;;;73.15;32.40;;;;;;;;;;4984825;28;20046;-66
2024/02/11 03:49:43;;;;;;;80.80;33.55;;;;;;;;;;4997459;28;20117;-66
2024/02/11 03:52:09;;;;;;;78.57;32.72;;;;;;;;;;4985856;28;20145;-65
2024/02/11 03:54:38;;;;;;;69.93;30.00;;;;;;;;;;4980145;28;20038;-66
2024/02/11 03:57:06;;;;;;;85.95;32.30;;;;;;;;;;4986916;28;20046;-66
2024/02/11 03:59:32;;;;;;;76.88;29.50;;;;;;;;;;4981882;28;20540;-65
2024/02/11 04:02:01;;;;;;;74.32;30.30;;;;;;;;;;4986906;28;20165;-65
2024/02/11 04:04:28;;;;;;;72.88;30.35;;;;;;;;;;4986939;28;20058;-65
2024/02/11 04:06:54;;;;;;;76.45;30.02;;;;;;;;;;4982324;28;20104;-65
2024/02/11 04:09:28;;;;;;;71.75;30.67;;;;;;;;;;4993075;28;20045;-66
2024/02/11 04:11:54;;;;;;;;;;;;;;;;;;4993396;28;20046;-64
2024/02/11 04:14:20;;;;;;;82.75;30.15;;;;;;;;;;4992474;28;20366;-65
2024/02/11 04:16:47;;;;;;;80.18;28.45;;;;;;;;;;4993616;28;20046;-65
2024/02/11 04:19:13;;;;;;;77.50;30.52;;;;;;;;;;5007014;28;20046;-65
2024/02/11 04:21:40;;;;;;;80.30;30.73;;;;;;;;;;4989572;28;20198;-66
2024/02/11 04:24:08;;;;;;;77.85;29.02;;;;;;;;;;5003458;28;20049;-65
2024/02/11 04:26:36;;;;;;;87.60;29.92;;;;;;;;;;4992264;28;20605;-65
2024/02/11 04:29:02;;;;;;;83.75;31.27;;;;;;;;;;5011219;28;20565;-66
2024/02/11 04:31:30;;;;;;;73.63;28.75;;;;;;;;;;4989092;28;20042;-65
2024/02/11 04:34:00;;;;;;;74.75;29.83;;;;;;;;;;4992111;28;20046;-65
2024/02/11 04:36:26;;;;;;;92.13;31.65;;;;;;;;;;5003927;28;20064;-65
2024/02/11 04:38:52;;;;;;;70.18;28.83;;;;;;;;;;4995928;28;20057;-65
2024/02/11 04:41:19;;;;;;;71.50;28.63;;;;;;;;;;4994189;28;20491;-66
2024/02/11 04:43:48;;;;;;;68.13;27.35;;;;;;;;;;4986450;28;20465;-65
2024/02/11 04:46:15;;;;;;;72.05;27.77;;;;;;;;;;4987618;28;20141;-65
2024/02/11 04:48:41;;;;;;;82.70;28.38;;;;;;;;;;4987112;28;20125;-66
2024/02/11 04:51:07;;;;;;;86.07;29.52;;;;;;;;;;4989099;28;20050;-65
2024/02/11 04:53:34;;;;;;;72.75;28.33;;;;;;;;;;4996076;28;20046;-66
2024/02/11 04:56:00;;;;;;;77.40;26.58;;;;;;;;;;4985364;28;20165;-65
2024/02/11 04:58:29;;;;;;;70.13;26.65;;;;;;;;;;5000788;28;20033;-65
2024/02/11 05:00:55;;;;;;;72.43;26.38;;;;;;;;;;4993566;28;20042;-65
2024/02/11 05:03:23;;;;;;;73.88;24.70;;;;;;;;;;4984781;28;20095;-66
2024/02/11 05:05:50;;;;;;;67.45;25.67;;;;;;;;;;5006471;28;20188;-65
2024/02/11 05:08:16;;;;;;;74.63;25.65;;;;;;;;;;4988125;28;20048;-65
2024/02/11 05:10:44;;;;;;;68.97;25.75;;;;;;;;;;4987064;28;20090;-66
2024/02/11 05:13:11;;;;;;;63.05;25.73;;;;;;;;;;4998389;28;20038;-65
2024/02/11 05:15:38;;;;;;;62.70;25.40;;;;;;;;;;4988302;28;20049;-66
2024/02/11 05:18:06;;;;;;;70.80;25.60;;;;;;;;;;4992925;28;20098;-65
2024/02/11 05:20:32;;;;;;;71.47;24.92;;;;;;;;;;4997727;28;20497;-65
2024/02/11 05:22:59;;;;;;;80.15;26.00;;;;;;;;;;5010037;28;20057;-65
2024/02/11 05:25:26;;;;;;;68.05;25.45;;;;;;;;;;4989037;28;20037;-66
2024/02/11 05:27:55;;;;;;;74.28;26.98;;;;;;;;;;5000146;28;20517;-66
2024/02/11 05:30:28;;;;;;;88.93;27.33;;;;;;;;;;4996798;28;20461;-66
2024/02/11 05:32:56;;;;;;;66.15;26.48;;;;;;;;;;4988192;28;21989;-65
2024/02/11 05:35:23;;;;;;;67.05;26.05;;;;;;;;;;4983334;28;20113;-66
2024/02/11 05:37:58;;;;;;;63.45;25.48;;;;;;;;;;4989873;28;20056;-65
2024/02/11 05:40:26;;;;;;;84.57;26.55;;;;;;;;;;5000105;28;20367;-65
2024/02/11 05:42:53;;;;;;;90.28;27.48;;;;;;;;;;4979528;28;20133;-65
2024/02/11 05:45:21;;;;;;;74.25;26.00;;;;;;;;;;4987649;28;20678;-65
2024/02/11 05:47:48;;;;;;;81.78;27.98;;;;;;;;;;4986912;28;20048;-65
2024/02/11 05:50:14;;;;;;;84.40;26.98;;;;;;;;;;4994755;28;20057;-65
2024/02/11 05:52:41;;;;;;;74.38;26.95;;;;;;;;;;5006540;28;20041;-65
2024/02/11 05:55:09;;;;;;;72.60;27.50;;;;;;;;;;4999249;28;20042;-66
2024/02/11 05:57:39;;;;;;;67.47;25.92;;;;;;;;;;4993816;28;20108;-66
2024/02/11 06:00:18;;;;;;;72.35;26.90;;;;;;;;;;4991274;28;21317;-65
2024/02/11 06:02:45;;;;;;;74.25;26.80;;;;;;;;;;4983665;28;20053;-65
2024/02/11 06:05:12;;;;;;;73.07;26.70;;;;;;;;;;4994266;28;20054;-65
2024/02/11 06:07:39;;;;;;;93.50;27.85;;;;;;;;;;4993917;28;20053;-65
2024/02/11 06:10:06;;;;;;;82.95;29.00;;;;;;;;;;4998149;28;20069;-66
2024/02/11 06:12:32;;;;;;;81.65;26.63;;;;;;;;;;4982232;28;20045;-65
2024/02/11 06:15:00;;;;;;;69.28;25.65;;;;;;;;;;4995255;28;20041;-66
2024/02/11 06:17:26;;;;;;;84.68;28.15;;;;;;;;;;4969523;28;20049;-65
2024/02/11 06:19:53;;;;;;;79.75;26.83;;;;;;;;;;4999319;28;20041;-65
2024/02/11 06:22:21;;;;;;;76.68;27.10;;;;;;;;;;4997779;28;20064;-65
2024/02/11 06:24:47;;;;;;;78.35;25.48;;;;;;;;;;4973823;28;20068;-66
2024/02/11 06:27:14;;;;;;;84.40;26.13;;;;;;;;;;4984154;28;20429;-65
2024/02/11 06:29:42;;;;;;;73.40;26.83;;;;;;;;;;4991581;28;20046;-65
2024/02/11 06:32:08;;;;;;;88.82;27.60;;;;;;;;;;4989176;28;20054;-65
2024/02/11 06:34:36;;;;;;;79.38;27.48;;;;;;;;;;4981191;28;20441;-66
2024/02/11 06:37:03;;;;;;;81.95;27.20;;;;;;;;;;4986180;28;20139;-65
2024/02/11 06:39:30;;;;;;;75.55;27.00;;;;;;;;;;4984449;28;20792;-65
2024/02/11 06:41:59;;;;;;;99.00;27.30;;;;;;;;;;4982964;28;20057;-65
2024/02/11 06:44:26;;;;;;;77.90;27.00;;;;;;;;;;5002253;28;20062;-65
2024/02/11 06:46:59;;;;;;;78.07;27.98;;;;;;;;;;4986898;28;20096;-66
2024/02/11 06:49:25;;;;;;;77.35;26.98;;;;;;;;;;4985783;28;20110;-65
2024/02/11 06:51:52;;;;;;;78.45;25.30;;;;;;;;;;4999803;28;20172;-65
2024/02/11 06:54:19;;;;;;;108.68;28.85;;;;;;;;;;4998279;28;20125;-66
2024/02/11 06:56:47;;;;;;;82.30;27.85;;;;;;;;;;4987617;28;20382;-65
2024/02/11 06:59:14;;;;;;;92.43;28.80;;;;;;;;;;4986919;28;20591;-65
2024/02/11 07:01:42;;;;;;;72.88;26.08;;;;;;;;;;4985993;28;20112;-66
2024/02/11 07:04:12;;;;;;;90.05;27.55;;;;;;;;;;4981018;28;20485;-66
2024/02/11 07:06:43;;;;;;;84.10;28.40;;;;;;;;;;4992932;28;20101;-65
2024/02/11 07:09:11;;;;;;;88.20;27.80;;;;;;;;;;4977947;28;20486;-65
2024/02/11 07:11:38;;;;;;;86.40;28.52;;;;;;;;;;5008560;28;20085;-65
2024/02/11 07:14:06;;;;;;;87.03;27.35;;;;;;;;;;5004106;28;20049;-66
2024/02/11 07:16:33;;;;;;;99.78;27.80;;;;;;;;;;4991883;28;20099;-66
2024/02/11 07:18:59;;;;;;;96.32;28.48;;;;;;;;;;5004573;28;20046;-66
2024/02/11 07:21:25;;;;;;;79.90;26.60;;;;;;;;;;4986373;28;20291;-66
2024/02/11 07:23:51;;;;;;;70.28;26.13;;;;;;;;;;4988529;28;20061;-66
2024/02/11 07:26:18;;;;;;;89.80;28.77;;;;;;;;;;4986554;28;20501;-66
2024/02/11 07:28:46;;;;;;;98.35;28.30;;;;;;;;;;4998116;28;20050;-66
2024/02/11 07:31:12;;;;;;;116.78;30.08;;;;;;;;;;4997642;28;20180;-66
2024/02/11 07:33:38;;;;;;;82.07;28.20;;;;;;;;;;4999324;28;20112;-66
2024/02/11 07:36:06;;;;;;;81.75;28.50;;;;;;;;;;4989367;28;20050;-66
2024/02/11 07:38:33;;;;;;;97.30;27.58;;;;;;;;;;4988572;28;20525;-66
2024/02/11 07:40:59;;;;;;;91.25;26.98;;;;;;;;;;4999450;28;20514;-65
2024/02/11 07:43:25;;;;;;;108.63;27.75;;;;;;;;;;4996153;28;20121;-65
2024/02/11 07:45:53;;;;;;;83.28;26.58;;;;;;;;;;4997634;28;20312;-65
2024/02/11 07:48:20;;;;;;;100.70;28.75;;;;;;;;;;4982369;28;20153;-66
2024/02/11 07:50:46;;;;;;;89.40;28.27;;;;;;;;;;5007778;28;20057;-66
2024/02/11 07:53:13;;;;;;;108.85;30.48;;;;;;;;;;5012697;28;20034;-66
2024/02/11 07:55:39;;;;;;;102.88;28.67;;;;;;;;;;4994259;28;20136;-66
2024/02/11 07:58:05;;;;;;;97.82;30.48;;;;;;;;;;5007614;28;20132;-66
2024/02/11 08:00:31;;;;;;;93.93;29.70;;;;;;;;;;4990935;28;20124;-66
2024/02/11 08:02:58;;;;;;;101.63;30.20;;;;;;;;;;4992281;28;20044;-66
2024/02/11 08:05:25;;;;;;;109.95;30.80;;;;;;;;;;5000237;28;20038;-66
2024/02/11 08:07:52;;;;;;;124.22;32.70;;;;;;;;;;4991663;28;20042;-66
2024/02/11 08:10:19;;;;;;;95.20;30.88;;;;;;;;;;5005049;28;20044;-66
2024/02/11 08:12:45;;;;;;;134.00;31.85;;;;;;;;;;4985950;28;20057;-66
2024/02/11 08:15:12;;;;;;;96.55;30.88;;;;;;;;;;4994505;28;20073;-66
2024/02/11 08:17:41;;;;;;;107.32;30.88;;;;;;;;;;4990487;28;20120;-66
2024/02/11 08:20:09;;;;;;;105.22;29.63;;;;;;;;;;4995839;28;20096;-66
2024/02/11 08:22:36;;;;;;;96.95;31.45;;;;;;;;;;4992226;28;20038;-66
2024/02/11 08:25:04;;;;;;;131.45;31.85;;;;;;;;;;4992399;28;20107;-66
2024/02/11 08:27:32;;;;;;;115.28;32.17;;;;;;;;;;4995396;28;20104;-66
2024/02/11 08:29:58;;;;;;;108.55;30.30;;;;;;;;;;5007543;28;20076;-66
2024/02/11 08:32:24;;;;;;;126.63;32.70;;;;;;;;;;5008325;28;20050;-66
2024/02/11 08:34:50;;;;;;;136.13;31.85;;;;;;;;;;5008163;28;20050;-66
2024/02/11 08:37:17;;;;;;;104.43;31.83;;;;;;;;;;4982806;28;20066;-66
2024/02/11 08:39:43;;;;;;;123.13;32.15;;;;;;;;;;5004062;28;20557;-66
2024/02/11 08:42:09;;;;;;;120.32;32.22;;;;;;;;;;4994724;28;20121;-69
2024/02/11 08:44:36;;;;;;;109.38;30.88;;;;;;;;;;4987406;28;20113;-66
2024/02/11 08:47:02;;;;;;;122.90;33.17;;;;;;;;;;4985832;28;20457;-67
2024/02/11 08:49:29;;;;;;;150.90;33.13;;;;;;;;;;4992631;28;20125;-66
2024/02/11 08:51:55;;;;;;;140.23;32.22;;;;;;;;;;5009270;28;20103;-66
2024/02/11 08:54:21;;;;;;;114.18;33.40;;;;;;;;;;5006338;28;20042;-66
2024/02/11 08:56:47;;;;;;;112.28;32.20;;;;;;;;;;4989503;28;20050;-66
2024/02/11 08:59:14;;;;;;;105.88;30.67;;;;;;;;;;4990046;28;20042;-67
2024/02/11 09:01:40;;;;;;;102.25;29.92;;;;;;;;;;5002298;28;20056;-66
2024/02/11 09:04:09;;;;;;;104.97;31.02;;;;;;;;;;4996472;28;20042;-66
2024/02/11 09:06:35;;;;;;;107.93;32.88;;;;;;;;;;4992870;28;20081;-66
2024/02/11 09:09:02;;;;;;;108.32;34.28;;;;;;;;;;4995028;28;20042;-66
2024/02/11 09:11:29;;;;;;;109.30;32.42;;;;;;;;;;4993786;28;20121;-67
2024/02/11 09:13:57;;;;;;;100.43;33.38;;;;;;;;;;4995554;28;20042;-67
2024/02/11 09:16:26;;;;;;;133.43;40.78;;;;;;;;;;5007735;28;20057;-69
2024/02/11 09:18:52;;;;;;;122.18;41.00;;;;;;;;;;5008612;28;20038;-66
2024/02/11 09:21:18;;;;;;;166.23;81.13;;;;;;;;;;4995117;28;20165;-67
2024/02/11 09:23:45;;;;;;;167.82;69.72;;;;;;;;;;5013933;28;20114;-67
2024/02/11 09:26:11;;;;;;;148.93;63.15;;;;;;;;;;4995744;28;20050;-66
2024/02/11 09:28:37;;;;;;;116.70;38.40;;;;;;;;;;5007177;28;20159;-66
2024/02/11 09:31:05;;;;;;;168.57;86.47;;;;;;;;;;4990653;28;20050;-66
2024/02/11 09:33:31;;;;;;;163.13;66.97;;;;;;;;;;4995426;28;20041;-66
2024/02/11 09:35:58;;;;;;;155.35;62.72;;;;;;;;;;4990556;28;20050;-68
2024/02/11 09:38:24;;;;;;;205.30;82.30;;;;;;;;;;5013170;28;20409;-68
2024/02/11 09:40:50;;;;;;;141.30;40.08;;;;;;;;;;5009876;28;20368;-68
2024/02/11 09:43:18;;;;;;;141.48;45.17;;;;;;;;;;4994734;28;20046;-68
2024/02/11 09:45:44;;;;;;;131.65;37.88;;;;;;;;;;4994437;28;20121;-68
2024/02/11 09:48:11;;;;;;;139.85;43.55;;;;;;;;;;5008146;28;20054;-67
2024/02/11 09:50:38;;;;;;;155.07;68.95;;;;;;;;;;4985036;28;20125;-67
2024/02/11 09:53:07;;;;;;;201.23;42.58;;;;;;;;;;4990727;28;20050;-68
2024/02/11 09:55:34;;;;;;;154.25;37.80;;;;;;;;;;4995598;28;20057;-69
2024/02/11 09:58:01;;;;;;;144.73;57.10;;;;;;;;;;5008684;28;20096;-66
2024/02/11 10:00:27;;;;;;;140.45;52.90;;;;;;;;;;4992050;28;20038;-67
2024/02/11 10:02:57;;;;;;;137.88;37.83;;;;;;;;;;5010891;28;20111;-67
2024/02/11 10:05:24;;;;;;;174.40;45.53;;;;;;;;;;4989341;28;20046;-66
2024/02/11 10:07:52;;;;;;;157.68;40.83;;;;;;;;;;4993625;28;20100;-66
2024/02/11 10:10:20;;;;;;;157.85;43.17;;;;;;;;;;4967246;28;20485;-66
2024/02/11 10:12:47;;;;;;;216.95;95.03;;;;;;;;;;5003678;28;20058;-66
2024/02/11 10:15:16;;;;;;;148.63;44.58;;;;;;;;;;4987409;28;20061;-67
2024/02/11 10:17:42;;;;;;;145.88;42.35;;;;;;;;;;4986116;28;20396;-66
2024/02/11 10:20:12;;;;;;;141.25;40.60;;;;;;;;;;4988329;28;20132;-66
2024/02/11 10:22:38;;;;;;;161.73;42.17;;;;;;;;;;4983173;28;20479;-66
2024/02/11 10:25:04;;;;;;;163.80;42.13;;;;;;;;;;4990351;28;20581;-67
2024/02/11 10:27:31;;;;;;;172.75;42.00;;;;;;;;;;4998830;28;20501;-66
2024/02/11 10:29:58;;;;;;;182.23;75.32;;;;;;;;;;4974635;28;20046;-66
2024/02/11 10:32:24;;;;;;;164.00;45.63;;;;;;;;;;5006624;28;20404;-66
2024/02/11 10:34:50;;;;;;;152.38;43.20;;;;;;;;;;4993864;28;20059;-67
2024/02/11 10:37:17;;;;;;;165.80;43.85;;;;;;;;;;5002366;28;20068;-67
2024/02/11 10:39:43;;;;;;;160.85;43.17;;;;;;;;;;4985376;28;20046;-66
2024/02/11 10:42:11;;;;;;;160.23;46.38;;;;;;;;;;4985940;28;20042;-68
2024/02/11 10:44:38;;;;;;;161.88;44.97;;;;;;;;;;4991862;28;20054;-66
2024/02/11 10:47:05;;;;;;;157.52;44.35;;;;;;;;;;4987360;28;20037;-67
2024/02/11 10:49:32;;;;;;;149.23;44.40;;;;;;;;;;4988788;28;20049;-66
2024/02/11 10:52:02;;;;;;;159.02;47.13;;;;;;;;;;5002546;28;20052;-69
2024/02/11 10:54:32;;;;;;;149.35;46.47;;;;;;;;;;4974279;28;20041;-67
2024/02/11 10:57:02;;;;;;;140.00;44.72;;;;;;;;;;4980163;28;20097;-66
2024/02/11 10:59:37;;;;;;;70.65;29.05;;;;;;;;;;5001881;28;20053;-67
2024/02/11 11:02:04;;;;;;;58.22;24.52;;;;;;;;;;5001938;28;20046;-67
2024/02/11 11:04:31;;;;;;;47.78;20.83;;;;;;;;;;5004079;28;20049;-66
2024/02/11 11:06:57;;;;;;;48.80;21.02;;;;;;;;;;4986534;28;20043;-67
2024/02/11 11:09:24;;;;;;;32.15;14.52;;;;;;;;;;4985231;28;20081;-66
2024/02/11 11:11:51;;;;;;;33.58;15.25;;;;;;;;;;5002925;28;20038;-68
2024/02/11 11:14:19;;;;;;;37.97;16.15;;;;;;;;;;4987803;28;20425;-67
2024/02/11 11:16:47;;;;;;;22.52;11.88;;;;;;;;;;4986345;28;20445;-67
2024/02/11 11:19:14;;;;;;;19.13;9.88;;;;;;;;;;4990833;28;20046;-67
2024/02/11 11:21:54;;;;;;;20.98;9.40;;;;;;;;;;4974791;28;20050;-67
2024/02/11 11:24:21;;;;;;;14.55;8.57;;;;;;;;;;5001008;28;20066;-67
2024/02/11 11:26:51;;;;;;;13.43;8.30;;;;;;;;;;4996492;28;20144;-67
2024/02/11 11:29:17;;;;;;;15.90;9.40;;;;;;;;;;5000188;28;20053;-67
2024/02/11 11:31:47;;;;;;;19.67;10.85;;;;;;;;;;4994239;28;20148;-67
2024/02/11 11:34:13;;;;;;;15.80;10.23;;;;;;;;;;4981913;28;20108;-67
2024/02/11 11:36:40;;;;;;;20.15;10.70;;;;;;;;;;4993024;28;20057;-67
2024/02/11 11:39:06;;;;;;;17.55;11.05;;;;;;;;;;4983431;28;20046;-67
2024/02/11 11:41:34;;;;;;;16.55;9.95;;;;;;;;;;4985992;28;20050;-67
2024/02/11 11:44:02;;;;;;;18.17;11.00;;;;;;;;;;4985173;28;20077;-67
2024/02/11 11:46:28;;;;;;;19.73;10.43;;;;;;;;;;4985123;28;20466;-67
2024/02/11 11:48:56;;;;;;;18.92;11.85;;;;;;;;;;4992142;28;20045;-67
2024/02/11 11:51:23;;;;;;;18.05;11.50;;;;;;;;;;4993317;28;20128;-67
2024/02/11 11:53:51;;;;;;;20.52;10.90;;;;;;;;;;5011530;28;20045;-67
2024/02/11 11:56:18;;;;;;;19.42;11.77;;;;;;;;;;4998035;28;20046;-67
2024/02/11 11:58:46;;;;;;;18.42;10.60;;;;;;;;;;4984203;28;20489;-67
2024/02/11 12:01:15;;;;;;;22.50;10.35;;;;;;;;;;4990353;28;20048;-67
2024/02/11 12:03:41;;;;;;;17.67;8.43;;;;;;;;;;4998003;28;20153;-67
2024/02/11 12:06:08;;;;;;;18.70;8.30;;;;;;;;;;4980899;28;20061;-67
2024/02/11 12:08:35;;;;;;;15.90;7.55;;;;;;;;;;5011194;28;20057;-69
2024/02/11 12:11:06;;;;;;;22.40;8.65;;;;;;;;;;5016350;28;20049;-67
2024/02/11 12:13:33;;;;;;;15.35;7.35;;;;;;;;;;5003665;28;20047;-67
2024/02/11 12:16:02;;;;;;;17.60;7.78;;;;;;;;;;5000533;28;20457;-68
2024/02/11 12:18:28;;;;;;;20.08;8.52;;;;;;;;;;4988674;28;20065;-67
2024/02/11 12:20:55;;;;;;;18.52;9.85;;;;;;;;;;4999827;28;20050;-67
2024/02/11 12:23:24;;;;;;;22.45;9.73;;;;;;;;;;4987500;28;20088;-67
2024/02/11 12:25:52;;;;;;;21.08;9.30;;;;;;;;;;4974636;28;20070;-67
2024/02/11 12:28:25;;;;;;;30.25;10.40;;;;;;;;;;4989585;28;20124;-67
2024/02/11 12:30:52;;;;;;;22.23;8.63;;;;;;;;;;4988977;28;20046;-66
2024/02/11 12:33:18;;;;;;;14.48;7.53;;;;;;;;;;5004049;28;20042;-67
2024/02/11 12:35:45;;;;;;;17.88;8.50;;;;;;;;;;5001374;28;20240;-68
2024/02/11 12:38:12;;;;;;;24.25;7.50;;;;;;;;;;4988050;28;20553;-67
2024/02/11 12:40:39;;;;;;;13.73;7.88;;;;;;;;;;4987887;28;20050;-66
2024/02/11 12:43:09;;;;;;;11.57;6.03;;;;;;;;;;4998590;28;20090;-66
2024/02/11 12:45:35;;;;;;;14.57;6.13;;;;;;;;;;4994646;28;20140;-67
2024/02/11 12:48:03;;;;;;;17.42;5.95;;;;;;;;;;4981981;28;20689;-67
2024/02/11 12:50:30;;;;;;;17.27;6.55;;;;;;;;;;4964643;28;20064;-67
2024/02/11 12:52:56;;;;;;;15.55;6.60;;;;;;;;;;4998824;28;20041;-67
2024/02/11 12:55:24;;;;;;;15.52;6.75;;;;;;;;;;4988815;28;20069;-68
2024/02/11 12:57:51;;;;;;;14.25;6.88;;;;;;;;;;5000328;28;20049;-67
2024/02/11 13:00:18;;;;;;;15.10;7.32;;;;;;;;;;4990876;28;20042;-66
2024/02/11 13:02:44;;;;;;;19.63;8.40;;;;;;;;;;5001044;28;20098;-67
2024/02/11 13:05:11;;;;;;;15.70;8.43;;;;;;;;;;4992111;28;20085;-67
2024/02/11 13:07:37;;;;;;;15.10;7.45;;;;;;;;;;4993784;28;20045;-66
2024/02/11 13:10:05;;;;;;;13.55;8.13;;;;;;;;;;4990070;28;20149;-66
2024/02/11 13:12:38;;;;;;;15.05;8.25;;;;;;;;;;4980842;28;20450;-66
2024/02/11 13:15:05;;;;;;;17.95;8.43;;;;;;;;;;5005764;28;20062;-66
2024/02/11 13:17:32;;;;;;;18.15;8.60;;;;;;;;;;5005480;28;20069;-66
2024/02/11 13:19:58;;;;;;;13.57;8.23;;;;;;;;;;5003889;28;20076;-66
2024/02/11 13:22:24;;;;;;;14.07;7.63;;;;;;;;;;4990441;28;20108;-66
2024/02/11 13:24:53;;;;;;;14.07;8.20;;;;;;;;;;4986820;28;20044;-66
2024/02/11 13:27:19;;;;;;;15.98;8.85;;;;;;;;;;4986192;28;20081;-66
2024/02/11 13:29:45;;;;;;;17.00;7.10;;;;;;;;;;4994664;28;20042;-66
2024/02/11 13:32:12;;;;;;;13.07;6.20;;;;;;;;;;5001998;28;20429;-66
2024/02/11 13:34:38;;;;;;;12.48;6.22;;;;;;;;;;4981891;28;20439;-66
2024/02/11 13:37:05;;;;;;;17.27;6.43;;;;;;;;;;4998873;28;20053;-66
2024/02/11 13:39:33;;;;;;;13.98;6.47;;;;;;;;;;4988929;28;20049;-66
2024/02/11 13:41:59;;;;;;;17.48;6.10;;;;;;;;;;4983315;28;20050;-67
2024/02/11 13:44:28;;;;;;;12.05;5.35;;;;;;;;;;4997735;28;20371;-66
2024/02/11 13:46:55;;;;;;;16.83;5.43;;;;;;;;;;4999466;28;20410;-66
2024/02/11 13:49:21;;;;;;;14.73;5.75;;;;;;;;;;4989193;28;20061;-66
2024/02/11 13:51:47;;;;;;;15.57;5.97;;;;;;;;;;4984428;28;20398;-66
2024/02/11 13:54:13;;;;;;;11.95;5.68;;;;;;;;;;5014173;28;20120;-66
2024/02/11 13:56:41;;;;;;;13.68;5.93;;;;;;;;;;4990701;28;20674;-66
2024/02/11 13:59:07;;;;;;;12.18;7.00;;;;;;;;;;4992059;28;20081;-66
2024/02/11 14:01:33;;;;;;;9.32;6.22;;;;;;;;;;4999134;28;20085;-66
2024/02/11 14:03:59;;;;;;;10.95;6.70;;;;;;;;;;5001171;28;20034;-66
2024/02/11 14:06:25;;;;;;;13.23;6.40;;;;;;;;;;4986357;28;20053;-66
2024/02/11 14:08:52;;;;;;;16.13;7.50;;;;;;;;;;4988521;28;20046;-66
2024/02/11 14:11:18;;;;;;;13.98;7.63;;;;;;;;;;4987723;28;20052;-66
2024/02/11 14:13:45;;;;;;;15.13;7.57;;;;;;;;;;5002361;28;20126;-66
2024/02/11 14:16:11;;;;;;;18.33;7.93;;;;;;;;;;4986854;28;20136;-66